sensor_id;sensor_type;location;lat;lon;timestamp;P1;durP1;ratioP1;P2;durP2;ratioP2
13891;SDS011;7016;48.172;8.058;2023-05-10T00:01:48;3.67;;;0.93;;
13891;SDS011;7016;48.172;8.058;2023-05-10T00:04:14;1.33;;;0.73;;
13891;SDS011;7016;48.172;8.058;2023-05-10T00:06:39;0.73;;;0.63;;
13891;SDS011;7016;48.172;8.058;2023-05-10T00:09:05;1.02;;;0.80;;
13891;SDS011;7016;48.172;8.058;2023-05-10T00:11:31;0.93;;;0.80;;
13891;SDS011;7016;48.172;8.058;2023-05-10T00:13:56;4.20;;;0.80;;
13891;SDS011;7016;48.172;8.058;2023-05-10T00:16:22;2.03;;;0.73;;
13891;SDS011;7016;48.172;8.058;2023-05-10T00:18:48;1.33;;;0.90;;
13891;SDS011;7016;48.172;8.058;2023-05-10T00:21:13;2.60;;;0.95;;
13891;SDS011;7016;48.172;8.058;2023-05-10T00:23:39;2.80;;;0.82;;
13891;SDS011;7016;48.172;8.058;2023-05-10T00:26:05;3.13;;;0.90;;
13891;SDS011;7016;48.172;8.058;2023-05-10T00:28:30;2.35;;;1.15;;
13891;SDS011;7016;48.172;8.058;2023-05-10T00:30:56;4.07;;;1.02;;
13891;SDS011;7016;48.172;8.058;2023-05-10T00:33:21;1.90;;;0.93;;
13891;SDS011;7016;48.172;8.058;2023-05-10T00:35:47;7.18;;;1.50;;
13891;SDS011;7016;48.172;8.058;2023-05-10T00:38:12;2.88;;;1.25;;
13891;SDS011;7016;48.172;8.058;2023-05-10T00:40:38;4.00;;;1.20;;
13891;SDS011;7016;48.172;8.058;2023-05-10T00:43:03;1.77;;;0.90;;
13891;SDS011;7016;48.172;8.058;2023-05-10T00:45:30;2.75;;;1.05;;
13891;SDS011;7016;48.172;8.058;2023-05-10T00:47:57;3.15;;;0.90;;
13891;SDS011;7016;48.172;8.058;2023-05-10T00:50:24;1.30;;;0.77;;
13891;SDS011;7016;48.172;8.058;2023-05-10T00:52:51;2.25;;;0.88;;
13891;SDS011;7016;48.172;8.058;2023-05-10T00:55:16;1.83;;;0.98;;
13891;SDS011;7016;48.172;8.058;2023-05-10T00:57:43;1.25;;;0.90;;
13891;SDS011;7016;48.172;8.058;2023-05-10T01:00:09;4.80;;;1.20;;
13891;SDS011;7016;48.172;8.058;2023-05-10T01:02:36;5.88;;;1.13;;
13891;SDS011;7016;48.172;8.058;2023-05-10T01:05:02;5.15;;;1.15;;
13891;SDS011;7016;48.172;8.058;2023-05-10T01:07:31;2.10;;;0.88;;
13891;SDS011;7016;48.172;8.058;2023-05-10T01:09:56;1.77;;;1.15;;
13891;SDS011;7016;48.172;8.058;2023-05-10T01:12:22;4.25;;;1.00;;
13891;SDS011;7016;48.172;8.058;2023-05-10T01:14:48;3.60;;;1.40;;
13891;SDS011;7016;48.172;8.058;2023-05-10T01:17:14;2.72;;;1.20;;
13891;SDS011;7016;48.172;8.058;2023-05-10T01:19:40;2.38;;;1.42;;
13891;SDS011;7016;48.172;8.058;2023-05-10T01:22:13;3.33;;;1.00;;
13891;SDS011;7016;48.172;8.058;2023-05-10T01:27:20;5.70;;;1.40;;
13891;SDS011;7016;48.172;8.058;2023-05-10T01:33:01;2.75;;;1.40;;
13891;SDS011;7016;48.172;8.058;2023-05-10T01:35:52;1.63;;;1.00;;
13891;SDS011;7016;48.172;8.058;2023-05-10T01:38:35;2.35;;;1.40;;
13891;SDS011;7016;48.172;8.058;2023-05-10T01:41:20;4.80;;;1.92;;
13891;SDS011;7016;48.172;8.058;2023-05-10T01:46:35;4.07;;;2.53;;
13891;SDS011;7016;48.172;8.058;2023-05-10T01:49:03;5.45;;;1.73;;
13891;SDS011;7016;48.172;8.058;2023-05-10T01:51:51;6.97;;;1.67;;
13891;SDS011;7016;48.172;8.058;2023-05-10T01:54:20;1.58;;;0.98;;
13891;SDS011;7016;48.172;8.058;2023-05-10T01:56:48;1.33;;;1.00;;
13891;SDS011;7016;48.172;8.058;2023-05-10T01:59:19;2.97;;;1.02;;
13891;SDS011;7016;48.172;8.058;2023-05-10T02:01:47;3.20;;;1.10;;
13891;SDS011;7016;48.172;8.058;2023-05-10T02:04:15;4.15;;;1.10;;
13891;SDS011;7016;48.172;8.058;2023-05-10T02:06:42;1.65;;;0.80;;
13891;SDS011;7016;48.172;8.058;2023-05-10T02:09:10;2.22;;;1.10;;
13891;SDS011;7016;48.172;8.058;2023-05-10T02:11:41;1.65;;;1.10;;
13891;SDS011;7016;48.172;8.058;2023-05-10T02:14:09;1.67;;;1.23;;
13891;SDS011;7016;48.172;8.058;2023-05-10T02:16:36;7.70;;;2.08;;
13891;SDS011;7016;48.172;8.058;2023-05-10T02:19:04;3.30;;;1.52;;
13891;SDS011;7016;48.172;8.058;2023-05-10T02:21:31;3.30;;;1.55;;
13891;SDS011;7016;48.172;8.058;2023-05-10T02:23:58;3.40;;;1.73;;
13891;SDS011;7016;48.172;8.058;2023-05-10T02:26:26;2.55;;;1.50;;
13891;SDS011;7016;48.172;8.058;2023-05-10T02:28:53;8.07;;;1.92;;
13891;SDS011;7016;48.172;8.058;2023-05-10T02:31:22;2.97;;;1.40;;
13891;SDS011;7016;48.172;8.058;2023-05-10T02:33:48;3.05;;;1.60;;
13891;SDS011;7016;48.172;8.058;2023-05-10T02:36:15;2.00;;;1.35;;
13891;SDS011;7016;48.172;8.058;2023-05-10T02:38:42;5.00;;;1.40;;
13891;SDS011;7016;48.172;8.058;2023-05-10T02:41:09;3.40;;;1.50;;
13891;SDS011;7016;48.172;8.058;2023-05-10T02:43:36;3.70;;;1.50;;
13891;SDS011;7016;48.172;8.058;2023-05-10T02:46:05;2.67;;;1.30;;
13891;SDS011;7016;48.172;8.058;2023-05-10T02:48:30;2.30;;;1.73;;
13891;SDS011;7016;48.172;8.058;2023-05-10T02:50:58;3.70;;;1.30;;
13891;SDS011;7016;48.172;8.058;2023-05-10T02:53:33;4.35;;;1.40;;
13891;SDS011;7016;48.172;8.058;2023-05-10T02:56:01;4.10;;;1.58;;
13891;SDS011;7016;48.172;8.058;2023-05-10T02:58:32;4.95;;;1.70;;
13891;SDS011;7016;48.172;8.058;2023-05-10T03:00:57;3.22;;;1.83;;
13891;SDS011;7016;48.172;8.058;2023-05-10T03:03:24;1.83;;;1.38;;
13891;SDS011;7016;48.172;8.058;2023-05-10T03:05:50;3.15;;;1.27;;
13891;SDS011;7016;48.172;8.058;2023-05-10T03:08:15;2.63;;;1.40;;
13891;SDS011;7016;48.172;8.058;2023-05-10T03:10:44;2.30;;;1.55;;
13891;SDS011;7016;48.172;8.058;2023-05-10T03:16:16;3.58;;;1.58;;
13891;SDS011;7016;48.172;8.058;2023-05-10T03:21:25;3.33;;;1.63;;
13891;SDS011;7016;48.172;8.058;2023-05-10T03:26:25;5.80;;;1.60;;
13891;SDS011;7016;48.172;8.058;2023-05-10T03:28:52;2.85;;;1.25;;
13891;SDS011;7016;48.172;8.058;2023-05-10T03:31:19;3.08;;;1.48;;
13891;SDS011;7016;48.172;8.058;2023-05-10T03:33:48;2.08;;;1.27;;
13891;SDS011;7016;48.172;8.058;2023-05-10T03:36:15;5.57;;;1.63;;
13891;SDS011;7016;48.172;8.058;2023-05-10T03:38:41;2.13;;;1.50;;
13891;SDS011;7016;48.172;8.058;2023-05-10T03:41:06;2.97;;;1.45;;
13891;SDS011;7016;48.172;8.058;2023-05-10T03:43:32;2.85;;;1.50;;
13891;SDS011;7016;48.172;8.058;2023-05-10T03:45:58;3.30;;;1.40;;
13891;SDS011;7016;48.172;8.058;2023-05-10T03:48:23;2.25;;;1.63;;
13891;SDS011;7016;48.172;8.058;2023-05-10T03:50:49;3.58;;;2.00;;
13891;SDS011;7016;48.172;8.058;2023-05-10T03:53:15;3.47;;;2.00;;
13891;SDS011;7016;48.172;8.058;2023-05-10T03:55:41;4.22;;;1.67;;
13891;SDS011;7016;48.172;8.058;2023-05-10T03:58:06;2.75;;;1.73;;
13891;SDS011;7016;48.172;8.058;2023-05-10T04:00:35;5.68;;;1.33;;
13891;SDS011;7016;48.172;8.058;2023-05-10T04:03:00;4.15;;;1.77;;
13891;SDS011;7016;48.172;8.058;2023-05-10T04:05:26;3.72;;;1.52;;
13891;SDS011;7016;48.172;8.058;2023-05-10T04:07:51;6.30;;;2.03;;
13891;SDS011;7016;48.172;8.058;2023-05-10T04:10:17;5.00;;;1.83;;
13891;SDS011;7016;48.172;8.058;2023-05-10T04:12:43;4.70;;;1.20;;
13891;SDS011;7016;48.172;8.058;2023-05-10T04:15:08;8.38;;;2.10;;
13891;SDS011;7016;48.172;8.058;2023-05-10T04:17:34;1.67;;;1.20;;
13891;SDS011;7016;48.172;8.058;2023-05-10T04:20:00;1.45;;;1.20;;
13891;SDS011;7016;48.172;8.058;2023-05-10T04:22:26;3.70;;;1.45;;
13891;SDS011;7016;48.172;8.058;2023-05-10T04:24:52;2.75;;;1.50;;
13891;SDS011;7016;48.172;8.058;2023-05-10T04:27:18;5.63;;;1.50;;
13891;SDS011;7016;48.172;8.058;2023-05-10T04:29:43;4.18;;;1.48;;
13891;SDS011;7016;48.172;8.058;2023-05-10T04:32:09;2.55;;;1.20;;
13891;SDS011;7016;48.172;8.058;2023-05-10T04:34:35;3.65;;;1.40;;
13891;SDS011;7016;48.172;8.058;2023-05-10T04:37:01;3.50;;;1.58;;
13891;SDS011;7016;48.172;8.058;2023-05-10T04:39:27;6.07;;;1.40;;
13891;SDS011;7016;48.172;8.058;2023-05-10T04:41:52;2.15;;;1.23;;
13891;SDS011;7016;48.172;8.058;2023-05-10T04:44:18;2.83;;;1.30;;
13891;SDS011;7016;48.172;8.058;2023-05-10T04:46:43;3.72;;;1.40;;
13891;SDS011;7016;48.172;8.058;2023-05-10T04:49:09;4.88;;;1.60;;
13891;SDS011;7016;48.172;8.058;2023-05-10T04:51:34;4.07;;;1.33;;
13891;SDS011;7016;48.172;8.058;2023-05-10T04:54:00;5.28;;;1.20;;
13891;SDS011;7016;48.172;8.058;2023-05-10T04:56:25;3.90;;;1.20;;
13891;SDS011;7016;48.172;8.058;2023-05-10T04:58:51;3.80;;;1.58;;
13891;SDS011;7016;48.172;8.058;2023-05-10T05:01:17;3.15;;;1.40;;
13891;SDS011;7016;48.172;8.058;2023-05-10T05:03:42;3.40;;;1.30;;
13891;SDS011;7016;48.172;8.058;2023-05-10T05:06:08;2.65;;;1.27;;
13891;SDS011;7016;48.172;8.058;2023-05-10T05:08:33;3.20;;;1.20;;
13891;SDS011;7016;48.172;8.058;2023-05-10T05:10:59;3.90;;;1.33;;
13891;SDS011;7016;48.172;8.058;2023-05-10T05:13:25;3.10;;;1.20;;
13891;SDS011;7016;48.172;8.058;2023-05-10T05:15:50;3.10;;;1.20;;
13891;SDS011;7016;48.172;8.058;2023-05-10T05:18:16;5.15;;;2.10;;
13891;SDS011;7016;48.172;8.058;2023-05-10T05:20:41;1.63;;;1.15;;
13891;SDS011;7016;48.172;8.058;2023-05-10T05:23:07;7.10;;;2.67;;
13891;SDS011;7016;48.172;8.058;2023-05-10T05:25:32;13.38;;;4.88;;
13891;SDS011;7016;48.172;8.058;2023-05-10T05:27:58;9.07;;;3.20;;
13891;SDS011;7016;48.172;8.058;2023-05-10T05:30:24;5.75;;;2.45;;
13891;SDS011;7016;48.172;8.058;2023-05-10T05:32:49;6.60;;;2.42;;
13891;SDS011;7016;48.172;8.058;2023-05-10T05:35:15;2.85;;;1.42;;
13891;SDS011;7016;48.172;8.058;2023-05-10T05:37:41;4.22;;;1.50;;
13891;SDS011;7016;48.172;8.058;2023-05-10T05:40:06;4.43;;;1.45;;
13891;SDS011;7016;48.172;8.058;2023-05-10T05:42:32;2.58;;;1.52;;
13891;SDS011;7016;48.172;8.058;2023-05-10T05:44:58;7.85;;;4.30;;
13891;SDS011;7016;48.172;8.058;2023-05-10T05:47:24;7.68;;;3.05;;
13891;SDS011;7016;48.172;8.058;2023-05-10T05:49:50;2.85;;;1.63;;
13891;SDS011;7016;48.172;8.058;2023-05-10T05:52:15;5.22;;;2.17;;
13891;SDS011;7016;48.172;8.058;2023-05-10T05:54:41;1.92;;;1.73;;
13891;SDS011;7016;48.172;8.058;2023-05-10T05:57:07;5.38;;;2.22;;
13891;SDS011;7016;48.172;8.058;2023-05-10T05:59:33;3.88;;;1.50;;
13891;SDS011;7016;48.172;8.058;2023-05-10T06:01:58;2.03;;;1.50;;
13891;SDS011;7016;48.172;8.058;2023-05-10T06:04:24;4.30;;;1.60;;
13891;SDS011;7016;48.172;8.058;2023-05-10T06:06:49;5.47;;;1.88;;
13891;SDS011;7016;48.172;8.058;2023-05-10T06:09:15;2.58;;;1.60;;
13891;SDS011;7016;48.172;8.058;2023-05-10T06:11:41;5.88;;;1.80;;
13891;SDS011;7016;48.172;8.058;2023-05-10T06:14:06;3.25;;;1.55;;
13891;SDS011;7016;48.172;8.058;2023-05-10T06:16:33;5.72;;;2.45;;
13891;SDS011;7016;48.172;8.058;2023-05-10T06:18:59;5.53;;;1.90;;
13891;SDS011;7016;48.172;8.058;2023-05-10T06:21:25;5.53;;;2.30;;
13891;SDS011;7016;48.172;8.058;2023-05-10T06:23:51;6.05;;;2.20;;
13891;SDS011;7016;48.172;8.058;2023-05-10T06:26:16;4.60;;;2.17;;
13891;SDS011;7016;48.172;8.058;2023-05-10T06:28:42;10.10;;;1.92;;
13891;SDS011;7016;48.172;8.058;2023-05-10T06:31:07;1.55;;;1.20;;
13891;SDS011;7016;48.172;8.058;2023-05-10T06:33:33;2.67;;;1.15;;
13891;SDS011;7016;48.172;8.058;2023-05-10T06:35:59;2.40;;;1.38;;
13891;SDS011;7016;48.172;8.058;2023-05-10T06:38:24;4.93;;;1.75;;
13891;SDS011;7016;48.172;8.058;2023-05-10T06:40:51;3.08;;;1.50;;
13891;SDS011;7016;48.172;8.058;2023-05-10T06:43:16;4.88;;;1.35;;
13891;SDS011;7016;48.172;8.058;2023-05-10T06:45:42;2.30;;;1.17;;
13891;SDS011;7016;48.172;8.058;2023-05-10T06:48:08;3.30;;;1.60;;
13891;SDS011;7016;48.172;8.058;2023-05-10T06:50:33;4.28;;;1.80;;
13891;SDS011;7016;48.172;8.058;2023-05-10T06:52:59;5.93;;;1.90;;
13891;SDS011;7016;48.172;8.058;2023-05-10T06:55:27;2.30;;;1.42;;
13891;SDS011;7016;48.172;8.058;2023-05-10T06:57:54;2.05;;;1.20;;
13891;SDS011;7016;48.172;8.058;2023-05-10T07:00:19;2.10;;;1.50;;
13891;SDS011;7016;48.172;8.058;2023-05-10T07:02:45;4.13;;;1.40;;
13891;SDS011;7016;48.172;8.058;2023-05-10T07:05:11;5.60;;;1.73;;
13891;SDS011;7016;48.172;8.058;2023-05-10T07:07:37;2.95;;;1.17;;
13891;SDS011;7016;48.172;8.058;2023-05-10T07:10:03;4.15;;;1.75;;
13891;SDS011;7016;48.172;8.058;2023-05-10T07:12:29;3.58;;;1.13;;
13891;SDS011;7016;48.172;8.058;2023-05-10T07:14:54;3.97;;;1.40;;
13891;SDS011;7016;48.172;8.058;2023-05-10T07:17:20;2.85;;;1.10;;
13891;SDS011;7016;48.172;8.058;2023-05-10T07:19:45;4.88;;;1.30;;
13891;SDS011;7016;48.172;8.058;2023-05-10T07:22:11;3.08;;;1.30;;
13891;SDS011;7016;48.172;8.058;2023-05-10T07:24:37;4.40;;;1.10;;
13891;SDS011;7016;48.172;8.058;2023-05-10T07:27:02;3.08;;;1.00;;
13891;SDS011;7016;48.172;8.058;2023-05-10T07:29:29;5.88;;;2.08;;
13891;SDS011;7016;48.172;8.058;2023-05-10T07:31:54;8.25;;;3.10;;
13891;SDS011;7016;48.172;8.058;2023-05-10T07:34:20;6.68;;;2.67;;
13891;SDS011;7016;48.172;8.058;2023-05-10T07:36:45;5.00;;;1.85;;
13891;SDS011;7016;48.172;8.058;2023-05-10T07:39:11;3.28;;;1.67;;
13891;SDS011;7016;48.172;8.058;2023-05-10T07:41:37;3.08;;;1.17;;
13891;SDS011;7016;48.172;8.058;2023-05-10T07:44:03;3.47;;;1.30;;
13891;SDS011;7016;48.172;8.058;2023-05-10T07:46:29;1.70;;;1.00;;
13891;SDS011;7016;48.172;8.058;2023-05-10T07:48:55;2.72;;;1.15;;
13891;SDS011;7016;48.172;8.058;2023-05-10T07:51:21;2.15;;;1.27;;
13891;SDS011;7016;48.172;8.058;2023-05-10T07:53:46;2.20;;;1.10;;
13891;SDS011;7016;48.172;8.058;2023-05-10T07:56:25;6.43;;;1.35;;
13891;SDS011;7016;48.172;8.058;2023-05-10T07:58:58;4.68;;;1.52;;
13891;SDS011;7016;48.172;8.058;2023-05-10T08:01:24;3.08;;;1.20;;
13891;SDS011;7016;48.172;8.058;2023-05-10T08:03:51;3.75;;;1.67;;
13891;SDS011;7016;48.172;8.058;2023-05-10T08:06:18;5.65;;;1.50;;
13891;SDS011;7016;48.172;8.058;2023-05-10T08:08:47;4.47;;;1.33;;
13891;SDS011;7016;48.172;8.058;2023-05-10T08:11:18;3.92;;;1.40;;
13891;SDS011;7016;48.172;8.058;2023-05-10T08:13:45;3.60;;;2.03;;
13891;SDS011;7016;48.172;8.058;2023-05-10T08:16:12;3.38;;;1.70;;
13891;SDS011;7016;48.172;8.058;2023-05-10T08:18:40;4.30;;;2.30;;
13891;SDS011;7016;48.172;8.058;2023-05-10T08:21:06;9.48;;;3.67;;
13891;SDS011;7016;48.172;8.058;2023-05-10T08:23:31;10.93;;;2.33;;
13891;SDS011;7016;48.172;8.058;2023-05-10T08:25:58;8.45;;;2.88;;
13891;SDS011;7016;48.172;8.058;2023-05-10T08:28:24;4.43;;;1.65;;
13891;SDS011;7016;48.172;8.058;2023-05-10T08:30:49;5.75;;;1.70;;
13891;SDS011;7016;48.172;8.058;2023-05-10T08:33:17;6.75;;;1.80;;
13891;SDS011;7016;48.172;8.058;2023-05-10T08:35:42;3.78;;;1.70;;
13891;SDS011;7016;48.172;8.058;2023-05-10T08:38:08;3.15;;;1.60;;
13891;SDS011;7016;48.172;8.058;2023-05-10T08:40:34;7.65;;;2.80;;
13891;SDS011;7016;48.172;8.058;2023-05-10T08:43:05;4.68;;;2.45;;
13891;SDS011;7016;48.172;8.058;2023-05-10T08:45:37;5.82;;;2.45;;
13891;SDS011;7016;48.172;8.058;2023-05-10T08:48:07;4.25;;;2.58;;
13891;SDS011;7016;48.172;8.058;2023-05-10T08:50:37;11.88;;;2.60;;
13891;SDS011;7016;48.172;8.058;2023-05-10T08:53:05;7.53;;;3.08;;
13891;SDS011;7016;48.172;8.058;2023-05-10T08:55:34;7.35;;;2.70;;
13891;SDS011;7016;48.172;8.058;2023-05-10T08:58:02;4.53;;;2.33;;
13891;SDS011;7016;48.172;8.058;2023-05-10T09:00:28;6.38;;;2.28;;
13891;SDS011;7016;48.172;8.058;2023-05-10T09:02:54;9.60;;;2.40;;
13891;SDS011;7016;48.172;8.058;2023-05-10T09:05:20;4.28;;;2.63;;
13891;SDS011;7016;48.172;8.058;2023-05-10T09:07:46;6.05;;;2.45;;
13891;SDS011;7016;48.172;8.058;2023-05-10T09:10:11;8.82;;;3.63;;
13891;SDS011;7016;48.172;8.058;2023-05-10T09:12:40;17.33;;;5.30;;
13891;SDS011;7016;48.172;8.058;2023-05-10T09:15:06;11.63;;;3.55;;
13891;SDS011;7016;48.172;8.058;2023-05-10T09:17:33;10.60;;;3.20;;
13891;SDS011;7016;48.172;8.058;2023-05-10T09:20:02;8.48;;;2.38;;
13891;SDS011;7016;48.172;8.058;2023-05-10T09:22:29;4.05;;;2.35;;
13891;SDS011;7016;48.172;8.058;2023-05-10T09:27:38;3.70;;;1.90;;
13891;SDS011;7016;48.172;8.058;2023-05-10T09:30:05;4.70;;;1.70;;
13891;SDS011;7016;48.172;8.058;2023-05-10T09:32:41;7.10;;;2.35;;
13891;SDS011;7016;48.172;8.058;2023-05-10T09:35:12;3.33;;;1.00;;
13891;SDS011;7016;48.172;8.058;2023-05-10T09:37:39;4.90;;;1.42;;
13891;SDS011;7016;48.172;8.058;2023-05-10T09:40:07;3.17;;;1.40;;
13891;SDS011;7016;48.172;8.058;2023-05-10T09:42:35;5.40;;;1.30;;
13891;SDS011;7016;48.172;8.058;2023-05-10T09:45:02;2.92;;;1.20;;
13891;SDS011;7016;48.172;8.058;2023-05-10T09:47:28;6.22;;;1.40;;
13891;SDS011;7016;48.172;8.058;2023-05-10T09:49:55;7.30;;;1.63;;
13891;SDS011;7016;48.172;8.058;2023-05-10T09:52:27;3.28;;;1.30;;
13891;SDS011;7016;48.172;8.058;2023-05-10T09:54:53;3.30;;;1.05;;
13891;SDS011;7016;48.172;8.058;2023-05-10T09:57:23;4.00;;;1.40;;
13891;SDS011;7016;48.172;8.058;2023-05-10T09:59:50;4.47;;;1.20;;
13891;SDS011;7016;48.172;8.058;2023-05-10T10:02:16;4.80;;;2.00;;
13891;SDS011;7016;48.172;8.058;2023-05-10T10:04:42;2.25;;;1.13;;
13891;SDS011;7016;48.172;8.058;2023-05-10T10:07:08;6.15;;;1.33;;
13891;SDS011;7016;48.172;8.058;2023-05-10T10:09:34;3.72;;;1.35;;
13891;SDS011;7016;48.172;8.058;2023-05-10T10:12:00;3.28;;;1.50;;
13891;SDS011;7016;48.172;8.058;2023-05-10T10:14:27;3.03;;;1.45;;
13891;SDS011;7016;48.172;8.058;2023-05-10T10:16:53;7.53;;;1.67;;
13891;SDS011;7016;48.172;8.058;2023-05-10T10:19:20;6.03;;;2.05;;
13891;SDS011;7016;48.172;8.058;2023-05-10T10:21:46;6.28;;;1.92;;
13891;SDS011;7016;48.172;8.058;2023-05-10T10:24:13;4.45;;;1.65;;
13891;SDS011;7016;48.172;8.058;2023-05-10T10:26:38;3.35;;;1.40;;
13891;SDS011;7016;48.172;8.058;2023-05-10T10:29:21;5.25;;;1.23;;
13891;SDS011;7016;48.172;8.058;2023-05-10T10:34:51;3.65;;;1.40;;
13891;SDS011;7016;48.172;8.058;2023-05-10T10:37:18;4.47;;;2.00;;
13891;SDS011;7016;48.172;8.058;2023-05-10T10:39:44;3.85;;;2.15;;
13891;SDS011;7016;48.172;8.058;2023-05-10T10:42:12;6.22;;;1.92;;
13891;SDS011;7016;48.172;8.058;2023-05-10T10:44:38;4.45;;;1.77;;
13891;SDS011;7016;48.172;8.058;2023-05-10T10:57:52;4.65;;;1.33;;
13891;SDS011;7016;48.172;8.058;2023-05-10T11:03:33;4.93;;;1.50;;
13891;SDS011;7016;48.172;8.058;2023-05-10T11:05:59;7.63;;;2.33;;
13891;SDS011;7016;48.172;8.058;2023-05-10T11:08:27;7.38;;;2.63;;
13891;SDS011;7016;48.172;8.058;2023-05-10T11:13:41;8.68;;;2.60;;
13891;SDS011;7016;48.172;8.058;2023-05-10T11:16:12;7.45;;;2.65;;
13891;SDS011;7016;48.172;8.058;2023-05-10T11:18:38;7.93;;;2.33;;
13891;SDS011;7016;48.172;8.058;2023-05-10T11:21:05;2.95;;;1.23;;
13891;SDS011;7016;48.172;8.058;2023-05-10T11:23:57;2.60;;;1.15;;
13891;SDS011;7016;48.172;8.058;2023-05-10T11:26:25;4.45;;;1.40;;
13891;SDS011;7016;48.172;8.058;2023-05-10T11:28:55;3.90;;;1.58;;
13891;SDS011;7016;48.172;8.058;2023-05-10T11:31:21;5.07;;;1.50;;
13891;SDS011;7016;48.172;8.058;2023-05-10T11:33:51;7.88;;;1.60;;
13891;SDS011;7016;48.172;8.058;2023-05-10T11:36:19;5.07;;;1.73;;
13891;SDS011;7016;48.172;8.058;2023-05-10T11:38:50;6.32;;;1.30;;
13891;SDS011;7016;48.172;8.058;2023-05-10T11:41:16;5.72;;;1.23;;
13891;SDS011;7016;48.172;8.058;2023-05-10T11:43:43;7.90;;;1.40;;
13891;SDS011;7016;48.172;8.058;2023-05-10T11:46:21;6.20;;;1.75;;
13891;SDS011;7016;48.172;8.058;2023-05-10T11:48:52;5.97;;;1.80;;
13891;SDS011;7016;48.172;8.058;2023-05-10T11:51:20;8.20;;;2.10;;
13891;SDS011;7016;48.172;8.058;2023-05-10T11:53:47;6.60;;;1.40;;
13891;SDS011;7016;48.172;8.058;2023-05-10T11:56:15;6.68;;;1.70;;
13891;SDS011;7016;48.172;8.058;2023-05-10T11:58:40;11.95;;;3.58;;
13891;SDS011;7016;48.172;8.058;2023-05-10T12:01:07;5.68;;;2.45;;
13891;SDS011;7016;48.172;8.058;2023-05-10T12:03:34;5.75;;;2.22;;
13891;SDS011;7016;48.172;8.058;2023-05-10T12:06:00;5.95;;;2.45;;
13891;SDS011;7016;48.172;8.058;2023-05-10T12:08:27;7.25;;;4.40;;
13891;SDS011;7016;48.172;8.058;2023-05-10T12:11:03;8.73;;;3.35;;
13891;SDS011;7016;48.172;8.058;2023-05-10T12:13:37;8.68;;;3.00;;
13891;SDS011;7016;48.172;8.058;2023-05-10T12:18:43;6.85;;;2.30;;
13891;SDS011;7016;48.172;8.058;2023-05-10T12:21:09;11.43;;;3.60;;
13891;SDS011;7016;48.172;8.058;2023-05-10T12:23:36;5.78;;;2.08;;
13891;SDS011;7016;48.172;8.058;2023-05-10T12:26:03;4.85;;;1.73;;
13891;SDS011;7016;48.172;8.058;2023-05-10T12:28:32;4.22;;;1.60;;
13891;SDS011;7016;48.172;8.058;2023-05-10T12:31:04;7.68;;;1.90;;
13891;SDS011;7016;48.172;8.058;2023-05-10T12:33:39;10.70;;;3.78;;
13891;SDS011;7016;48.172;8.058;2023-05-10T12:36:07;10.73;;;4.65;;
13891;SDS011;7016;48.172;8.058;2023-05-10T12:38:37;11.02;;;3.58;;
13891;SDS011;7016;48.172;8.058;2023-05-10T12:41:05;21.63;;;8.15;;
13891;SDS011;7016;48.172;8.058;2023-05-10T12:43:32;15.48;;;5.20;;
13891;SDS011;7016;48.172;8.058;2023-05-10T12:46:05;10.30;;;3.40;;
13891;SDS011;7016;48.172;8.058;2023-05-10T12:48:31;18.17;;;8.02;;
13891;SDS011;7016;48.172;8.058;2023-05-10T12:50:58;21.63;;;8.93;;
13891;SDS011;7016;48.172;8.058;2023-05-10T12:53:24;9.13;;;2.40;;
13891;SDS011;7016;48.172;8.058;2023-05-10T12:55:50;4.40;;;1.77;;
13891;SDS011;7016;48.172;8.058;2023-05-10T12:58:16;6.78;;;1.70;;
13891;SDS011;7016;48.172;8.058;2023-05-10T13:00:42;7.10;;;1.52;;
13891;SDS011;7016;48.172;8.058;2023-05-10T13:03:08;4.63;;;1.60;;
13891;SDS011;7016;48.172;8.058;2023-05-10T13:05:34;4.13;;;1.40;;
13891;SDS011;7016;48.172;8.058;2023-05-10T13:08:00;5.80;;;1.38;;
13891;SDS011;7016;48.172;8.058;2023-05-10T13:10:26;4.82;;;1.40;;
13891;SDS011;7016;48.172;8.058;2023-05-10T13:12:54;6.75;;;1.30;;
13891;SDS011;7016;48.172;8.058;2023-05-10T13:15:19;7.75;;;1.23;;
13891;SDS011;7016;48.172;8.058;2023-05-10T13:17:45;4.82;;;1.23;;
13891;SDS011;7016;48.172;8.058;2023-05-10T13:20:10;3.33;;;1.20;;
13891;SDS011;7016;48.172;8.058;2023-05-10T13:22:36;5.13;;;1.20;;
13891;SDS011;7016;48.172;8.058;2023-05-10T13:25:02;6.35;;;1.50;;
13891;SDS011;7016;48.172;8.058;2023-05-10T13:27:27;5.38;;;1.52;;
13891;SDS011;7016;48.172;8.058;2023-05-10T13:29:53;6.45;;;2.63;;
13891;SDS011;7016;48.172;8.058;2023-05-10T13:32:19;9.40;;;2.17;;
13891;SDS011;7016;48.172;8.058;2023-05-10T13:34:45;5.53;;;1.40;;
13891;SDS011;7016;48.172;8.058;2023-05-10T13:37:12;3.85;;;1.48;;
13891;SDS011;7016;48.172;8.058;2023-05-10T13:39:37;4.70;;;1.50;;
13891;SDS011;7016;48.172;8.058;2023-05-10T13:42:03;5.18;;;1.50;;
13891;SDS011;7016;48.172;8.058;2023-05-10T13:44:29;10.68;;;1.60;;
13891;SDS011;7016;48.172;8.058;2023-05-10T13:46:55;4.03;;;1.20;;
13891;SDS011;7016;48.172;8.058;2023-05-10T13:49:21;6.03;;;1.70;;
13891;SDS011;7016;48.172;8.058;2023-05-10T13:51:47;3.03;;;1.13;;
13891;SDS011;7016;48.172;8.058;2023-05-10T13:54:13;5.38;;;1.30;;
13891;SDS011;7016;48.172;8.058;2023-05-10T13:56:39;3.97;;;1.23;;
13891;SDS011;7016;48.172;8.058;2023-05-10T13:59:05;3.83;;;1.30;;
13891;SDS011;7016;48.172;8.058;2023-05-10T14:01:32;3.72;;;1.13;;
13891;SDS011;7016;48.172;8.058;2023-05-10T14:03:59;6.00;;;1.80;;
13891;SDS011;7016;48.172;8.058;2023-05-10T14:06:24;5.50;;;1.70;;
13891;SDS011;7016;48.172;8.058;2023-05-10T14:08:51;6.55;;;1.60;;
13891;SDS011;7016;48.172;8.058;2023-05-10T14:11:18;2.75;;;1.10;;
13891;SDS011;7016;48.172;8.058;2023-05-10T14:13:44;3.22;;;1.00;;
13891;SDS011;7016;48.172;8.058;2023-05-10T14:16:10;3.67;;;1.17;;
13891;SDS011;7016;48.172;8.058;2023-05-10T14:18:36;4.95;;;1.10;;
13891;SDS011;7016;48.172;8.058;2023-05-10T14:21:02;3.88;;;0.80;;
13891;SDS011;7016;48.172;8.058;2023-05-10T14:23:28;7.63;;;1.40;;
13891;SDS011;7016;48.172;8.058;2023-05-10T14:25:54;3.80;;;1.33;;
13891;SDS011;7016;48.172;8.058;2023-05-10T14:28:20;2.28;;;0.90;;
13891;SDS011;7016;48.172;8.058;2023-05-10T14:30:46;2.58;;;0.93;;
13891;SDS011;7016;48.172;8.058;2023-05-10T14:33:16;2.47;;;0.60;;
13891;SDS011;7016;48.172;8.058;2023-05-10T14:35:41;4.00;;;1.05;;
13891;SDS011;7016;48.172;8.058;2023-05-10T14:38:07;1.95;;;0.70;;
13891;SDS011;7016;48.172;8.058;2023-05-10T14:40:33;6.22;;;1.13;;
13891;SDS011;7016;48.172;8.058;2023-05-10T14:43:01;2.63;;;0.93;;
13891;SDS011;7016;48.172;8.058;2023-05-10T14:45:27;4.97;;;0.70;;
13891;SDS011;7016;48.172;8.058;2023-05-10T14:47:52;7.72;;;1.35;;
13891;SDS011;7016;48.172;8.058;2023-05-10T14:50:18;6.43;;;0.98;;
13891;SDS011;7016;48.172;8.058;2023-05-10T14:52:44;2.55;;;1.02;;
13891;SDS011;7016;48.172;8.058;2023-05-10T14:55:09;3.35;;;1.20;;
13891;SDS011;7016;48.172;8.058;2023-05-10T14:57:35;4.72;;;0.93;;
13891;SDS011;7016;48.172;8.058;2023-05-10T15:00:01;5.32;;;0.80;;
13891;SDS011;7016;48.172;8.058;2023-05-10T15:02:28;3.40;;;1.00;;
13891;SDS011;7016;48.172;8.058;2023-05-10T15:04:55;3.05;;;0.80;;
13891;SDS011;7016;48.172;8.058;2023-05-10T15:07:20;2.67;;;0.88;;
13891;SDS011;7016;48.172;8.058;2023-05-10T15:09:46;4.72;;;1.15;;
13891;SDS011;7016;48.172;8.058;2023-05-10T15:12:12;3.05;;;1.00;;
13891;SDS011;7016;48.172;8.058;2023-05-10T15:14:37;2.30;;;0.88;;
13891;SDS011;7016;48.172;8.058;2023-05-10T15:17:03;6.03;;;0.80;;
13891;SDS011;7016;48.172;8.058;2023-05-10T15:19:31;0.90;;;0.60;;
13891;SDS011;7016;48.172;8.058;2023-05-10T15:21:58;1.58;;;0.80;;
13891;SDS011;7016;48.172;8.058;2023-05-10T15:31:46;1.23;;;0.57;;
13891;SDS011;7016;48.172;8.058;2023-05-10T15:35:27;2.30;;;0.60;;
13891;SDS011;7016;48.172;8.058;2023-05-10T15:37:53;3.17;;;1.10;;
13891;SDS011;7016;48.172;8.058;2023-05-10T15:40:21;2.88;;;0.95;;
13891;SDS011;7016;48.172;8.058;2023-05-10T15:42:47;7.15;;;1.15;;
13891;SDS011;7016;48.172;8.058;2023-05-10T15:45:12;6.43;;;0.82;;
13891;SDS011;7016;48.172;8.058;2023-05-10T15:47:38;2.63;;;1.02;;
13891;SDS011;7016;48.172;8.058;2023-05-10T15:50:06;0.82;;;0.50;;